Chesterfield, MO

8:24 AM CDT on June 27, 2017 (GMT -0500)
Spirit Of Saint Louis | | Change Station

Elev 463 ft 38.66 °N, 90.65 °W | Updated 30 minutes ago

Shallow Fog
Shallow Fog
59 °F
Feels Like 59 °F
N
4
Wind Variable Wind from WSW

Today
High -- | Low -- °F
--% Chance of Precip.
Yesterday
High -- | Low -- °F
Precip. -- in
Pressure 30.15 in
Visibility 7.0 miles
Clouds Few 200 ft
Dew Point 59 °F
Humidity 100%
Rainfall 0.00 in
Snow Depth Not available.
5:40 AM 8:31 PM
Waxing Crescent, 16% visible
METAR KSUS 271254Z 25003KT 7SM MIFG FEW002 15/15 A3016 RMK AO2 SLP209 FOG BANK OVR RVR T01500150
Pressure 30.15 in
Visibility 7.0 miles
Clouds Few 200 ft
Dew Point 59 °F
Humidity 100%
Rainfall 0.00 in
Snow Depth Not available.
5:40 AM 8:31 PM
Waxing Crescent, 16% visible
METAR KSUS 271254Z 25003KT 7SM MIFG FEW002 15/15 A3016 RMK AO2 SLP209 FOG BANK OVR RVR T01500150

Get Severe Weather Alerts

Thanks for signing up!

Be on the lookout for a verification email in your inbox.

You'll start receiving the daily forecast at 6 AM.

×

10-Day Weather Forecast

Almanac

Astronomy

Jun. 27, 2017 Rise Set
Actual Time
Civil Twilight
Nautical Twilight
Astronomical Twilight
Moon
Length of Visible Light
Length of Day
Tomorrow will be .
, % of the Moon is Illuminated

Today's Extremes

State Highs State Lows

Community

WunderPhotos

Category 6

Welcome to Category 6. This is the collective home for Weather Underground's featured writeups by Dr. Jeff Masters (right), Bob Henson (left), Chris Burt, and other regular contributors.

Nearby

Air Quality

  Air Quality AQ Index Pollutant
Not available.

Snow Depth

Station Depth Elevation

Earthquake Activity

City Distance Mag. Time & Date
Minimum magnitude displayed is 2.5.

Coastal Water Temperatures

Place Temperature

Stations

Nearby Weather Stations

Station Location Temp. Windchill Dew Point Humidity Wind Precip. Elev Updated Type
                   

Watches & Warnings

There are currently no watches in effect.